createdAt,value
2018-06-03T00:02:11.511Z,17.60
2018-06-03T00:04:39.000Z,17.70
2018-06-03T00:07:06.478Z,18.90
2018-06-03T00:09:35.596Z,18.90
2018-06-03T00:12:03.822Z,20.80
2018-06-03T00:14:31.334Z,18.00
2018-06-03T00:16:58.797Z,21.30
2018-06-03T00:19:27.035Z,20.07
2018-06-03T00:21:54.623Z,20.80
2018-06-03T00:24:22.905Z,20.63
2018-06-03T00:26:50.550Z,20.30
2018-06-03T00:29:18.073Z,21.37
2018-06-03T00:31:45.531Z,22.33
2018-06-03T00:34:13.225Z,23.70
2018-06-03T00:36:46.264Z,24.23
2018-06-03T00:39:15.301Z,23.80
2018-06-03T00:41:42.786Z,22.47
2018-06-03T00:44:11.049Z,23.20
2018-06-03T00:46:38.573Z,21.10
2018-06-03T00:49:07.300Z,22.50
2018-06-03T00:51:36.227Z,24.93
2018-06-03T00:54:03.736Z,23.77
2018-06-03T01:00:16.994Z,26.03
2018-06-03T01:02:45.496Z,22.57
2018-06-03T01:05:14.132Z,22.30
2018-06-03T01:07:42.908Z,24.40
2018-06-03T01:10:15.072Z,22.93
2018-06-03T01:12:43.629Z,25.00
2018-06-03T01:15:12.730Z,24.93
2018-06-03T01:17:41.478Z,23.20
2018-06-03T01:20:10.079Z,22.30
2018-06-03T01:22:38.925Z,27.40
2018-06-03T01:25:10.258Z,25.30
2018-06-03T01:27:39.081Z,24.20
2018-06-03T01:30:07.581Z,23.47
2018-06-03T01:32:36.932Z,28.77
2018-06-03T01:35:05.423Z,25.17
2018-06-03T01:37:34.004Z,24.47
2018-06-03T01:40:02.459Z,25.30
2018-06-03T01:42:31.875Z,24.97
2018-06-03T01:45:00.450Z,25.23
2018-06-03T01:47:28.946Z,26.00
2018-06-03T01:49:57.486Z,26.87
2018-06-03T01:52:26.117Z,25.50
2018-06-03T01:54:54.665Z,27.50
2018-06-03T01:57:23.144Z,27.10
2018-06-03T01:59:51.585Z,27.07
2018-06-03T02:02:23.928Z,24.40
2018-06-03T02:04:52.537Z,26.57
2018-06-03T02:07:20.996Z,23.47
2018-06-03T02:09:49.485Z,25.60
2018-06-03T02:12:17.966Z,23.53
2018-06-03T02:14:46.465Z,26.50
2018-06-03T02:17:15.000Z,24.23
2018-06-03T02:19:44.467Z,21.43
2018-06-03T02:22:13.089Z,24.57
2018-06-03T02:24:41.633Z,25.30
2018-06-03T02:27:11.019Z,23.90
2018-06-03T02:29:39.480Z,26.10
2018-06-03T02:32:08.048Z,24.97
2018-06-03T02:34:36.488Z,25.43
2018-06-03T02:37:05.041Z,26.13
2018-06-03T02:39:33.531Z,23.93
2018-06-03T02:42:02.078Z,22.97
2018-06-03T02:44:30.648Z,26.50
2018-06-03T02:46:59.926Z,26.60
2018-06-03T02:49:28.466Z,25.97
2018-06-03T02:51:57.123Z,27.50
2018-06-03T02:54:25.564Z,26.43
2018-06-03T02:56:54.198Z,26.30
2018-06-03T02:59:22.627Z,26.10
2018-06-03T03:01:51.077Z,24.67
2018-06-03T03:04:19.504Z,27.80
2018-06-03T03:06:48.060Z,25.37
2018-06-03T03:09:16.501Z,28.10
2018-06-03T03:11:44.953Z,28.03
2018-06-03T03:14:13.598Z,28.13
2018-06-03T03:16:42.064Z,26.30
2018-06-03T03:19:11.045Z,26.87
2018-06-03T03:21:39.533Z,27.43
2018-06-03T03:24:07.933Z,24.10
2018-06-03T03:26:36.508Z,25.30
2018-06-03T03:29:04.949Z,23.70
2018-06-03T03:31:33.374Z,22.80
2018-06-03T03:34:02.367Z,24.73
2018-06-03T03:36:32.684Z,25.40
2018-06-03T03:39:03.149Z,26.23
2018-06-03T03:41:31.604Z,25.00
2018-06-03T03:44:00.104Z,30.80
2018-06-03T03:46:28.633Z,27.07
2018-06-03T03:48:57.142Z,27.83
2018-06-03T03:51:25.786Z,25.10
2018-06-03T03:53:54.863Z,24.60
2018-06-03T03:56:23.754Z,26.90
2018-06-03T03:58:52.193Z,25.00
2018-06-03T04:01:20.689Z,24.83
2018-06-03T04:03:49.180Z,25.07
2018-06-03T04:06:18.219Z,25.47
2018-06-03T04:08:46.820Z,25.70
2018-06-03T04:11:15.300Z,24.30
2018-06-03T04:13:43.748Z,27.33
2018-06-03T04:16:12.196Z,24.27
2018-06-03T04:18:41.057Z,26.63
2018-06-03T04:21:10.891Z,25.90
2018-06-03T04:23:39.783Z,24.17
2018-06-03T04:26:08.299Z,25.07
2018-06-03T04:28:38.159Z,26.30
2018-06-03T04:33:40.914Z,26.20
2018-06-03T04:36:09.461Z,23.87
2018-06-03T04:38:38.096Z,22.17
2018-06-03T04:41:06.612Z,22.17
2018-06-03T04:43:35.365Z,23.40
2018-06-03T04:46:03.790Z,22.47
2018-06-03T04:48:32.281Z,23.67
2018-06-03T04:51:00.754Z,23.20
2018-06-03T04:53:29.221Z,21.90
2018-06-03T04:55:57.702Z,20.90
2018-06-03T04:58:26.120Z,20.17
2018-06-03T05:00:54.615Z,19.43
2018-06-03T05:03:23.107Z,21.60
2018-06-03T05:05:51.503Z,18.53
2018-06-03T05:08:21.398Z,21.80
2018-06-03T05:10:49.883Z,20.77
2018-06-03T05:13:18.030Z,21.37
2018-06-03T05:15:46.507Z,21.27
2018-06-03T05:18:15.962Z,17.40
2018-06-03T05:20:44.419Z,19.07
2018-06-03T05:23:12.961Z,17.30
2018-06-03T05:25:41.405Z,19.33
2018-06-03T05:28:09.866Z,17.83
2018-06-03T05:30:38.426Z,17.80
2018-06-03T05:33:06.936Z,17.70
2018-06-03T05:35:35.448Z,16.83
2018-06-03T05:38:03.945Z,18.37
2018-06-03T05:40:32.424Z,16.37
2018-06-03T05:43:00.923Z,15.93
2018-06-03T05:45:30.081Z,16.97
2018-06-03T05:47:58.539Z,15.03
2018-06-03T05:50:27.129Z,14.70
2018-06-03T05:52:55.820Z,13.47
2018-06-03T05:55:24.483Z,14.87
2018-06-03T05:57:52.954Z,14.47
2018-06-03T06:00:21.379Z,11.60
2018-06-03T06:02:49.868Z,12.50
2018-06-03T06:18:19.117Z,14.27
2018-06-03T06:20:47.628Z,11.93
2018-06-03T06:23:16.348Z,12.85
2018-06-03T06:25:45.616Z,11.25
2018-06-03T06:28:13.785Z,13.35
2018-06-03T06:30:42.427Z,12.33
2018-06-03T06:33:10.995Z,12.15
2018-06-03T06:35:39.548Z,11.97
2018-06-03T06:38:08.049Z,12.15
2018-06-03T06:40:37.337Z,12.25
2018-06-03T06:43:05.854Z,13.32
2018-06-03T06:45:35.021Z,13.48
2018-06-03T06:48:03.509Z,12.45
2018-06-03T06:50:33.961Z,10.78
2018-06-03T06:53:02.411Z,12.10
2018-06-03T06:55:31.525Z,12.85
2018-06-03T06:57:59.964Z,12.70
2018-06-03T07:00:28.455Z,10.55
2018-06-03T07:02:57.459Z,14.87
2018-06-03T07:05:25.928Z,12.70
2018-06-03T07:07:54.360Z,11.83
2018-06-03T07:10:23.183Z,10.78
2018-06-03T07:12:51.686Z,11.63
2018-06-03T07:15:19.871Z,10.70
2018-06-03T07:17:48.341Z,12.43
2018-06-03T07:20:16.852Z,13.05
2018-06-03T07:22:46.552Z,12.50
2018-06-03T07:25:14.988Z,12.68
2018-06-03T07:27:43.577Z,13.28
2018-06-03T07:30:12.088Z,11.28
2018-06-03T07:32:40.588Z,11.78
2018-06-03T07:35:09.193Z,14.85
2018-06-03T07:37:38.163Z,14.25
2018-06-03T07:40:06.637Z,13.83
2018-06-03T07:42:35.498Z,13.20
2018-06-03T07:45:04.247Z,12.40
2018-06-03T07:47:32.970Z,14.43
2018-06-03T07:50:01.561Z,13.58
2018-06-03T07:52:30.058Z,15.20
2018-06-03T07:54:58.553Z,14.10
2018-06-03T07:57:26.907Z,13.50
2018-06-03T07:59:55.584Z,11.20
2018-06-03T08:02:24.509Z,14.37
2018-06-03T08:04:53.256Z,15.43
2018-06-03T08:07:21.965Z,15.40
2018-06-03T08:09:50.444Z,13.93
2018-06-03T08:12:18.987Z,15.27
2018-06-03T08:14:47.435Z,14.77
2018-06-03T08:17:16.100Z,14.30
2018-06-03T08:19:45.890Z,12.87
2018-06-03T08:22:14.526Z,13.80
2018-06-03T08:24:43.025Z,15.00
2018-06-03T08:27:11.526Z,14.27
2018-06-03T08:29:40.127Z,14.43
2018-06-03T08:32:08.682Z,13.43
2018-06-03T08:34:37.426Z,15.23
2018-06-03T08:37:05.964Z,14.40
2018-06-03T08:39:34.440Z,13.83
2018-06-03T08:42:03.201Z,13.57
2018-06-03T08:44:35.058Z,12.68
2018-06-03T08:47:03.591Z,13.48
2018-06-03T08:49:32.130Z,15.32
2018-06-03T08:52:00.598Z,14.10
2018-06-03T08:54:28.747Z,16.35
2018-06-03T08:56:57.431Z,17.05
2018-06-03T08:59:25.919Z,14.90
2018-06-03T09:01:54.797Z,15.15
2018-06-03T09:04:23.259Z,11.88
2018-06-03T09:06:51.915Z,16.15
2018-06-03T09:09:20.465Z,13.38
2018-06-03T09:11:48.901Z,14.00
2018-06-03T09:14:17.547Z,14.23
2018-06-03T09:16:46.199Z,15.50
2018-06-03T09:19:14.835Z,14.90
2018-06-03T09:21:43.415Z,16.48
2018-06-03T09:24:12.601Z,15.00
2018-06-03T09:26:41.099Z,17.20
2018-06-03T09:29:10.027Z,14.68
2018-06-03T09:31:38.646Z,14.80
2018-06-03T09:34:07.298Z,15.05
2018-06-03T09:36:35.793Z,15.98
2018-06-03T09:39:06.354Z,14.50
2018-06-03T09:41:34.869Z,13.28
2018-06-03T09:44:03.772Z,15.38
2018-06-03T09:46:32.281Z,13.68
2018-06-03T09:49:01.485Z,14.40
2018-06-03T09:51:29.993Z,13.90
2018-06-03T09:53:58.918Z,14.98
2018-06-03T09:56:27.446Z,16.12
2018-06-03T09:58:55.976Z,14.07
2018-06-03T10:01:24.317Z,14.28
2018-06-03T10:03:52.725Z,13.10
2018-06-03T10:06:23.193Z,13.72
2018-06-03T10:08:51.669Z,14.43
2018-06-03T10:11:20.664Z,13.45
2018-06-03T10:13:49.112Z,12.82
2018-06-03T10:16:17.733Z,12.63
2018-06-03T10:18:46.458Z,15.03
2018-06-03T10:21:14.958Z,17.82
2018-06-03T10:23:43.435Z,15.13
2018-06-03T10:26:12.096Z,14.23
2018-06-03T10:28:40.684Z,14.07
2018-06-03T10:31:09.423Z,16.12
2018-06-03T10:33:38.595Z,16.20
2018-06-03T10:36:07.193Z,15.85
2018-06-03T10:38:35.510Z,16.70
2018-06-03T10:41:04.293Z,15.00
2018-06-03T10:43:32.819Z,13.80
2018-06-03T10:46:01.457Z,13.78
2018-06-03T10:48:29.988Z,13.18
2018-06-03T10:50:58.757Z,12.90
2018-06-03T10:53:27.749Z,13.32
2018-06-03T10:55:56.216Z,13.88
2018-06-03T10:58:24.913Z,13.53
2018-06-03T11:00:53.364Z,19.37
2018-06-03T11:03:25.512Z,12.20
2018-06-03T11:05:54.096Z,13.13
2018-06-03T11:08:22.584Z,12.20
2018-06-03T11:10:51.211Z,12.25
2018-06-03T11:13:19.816Z,14.87
2018-06-03T11:15:48.380Z,12.87
2018-06-03T11:18:16.870Z,13.72
2018-06-03T11:20:45.389Z,13.08
2018-06-03T11:23:13.867Z,14.68
2018-06-03T11:25:42.362Z,13.10
2018-06-03T11:28:10.849Z,15.40
2018-06-03T11:30:39.458Z,13.85
2018-06-03T11:33:08.237Z,15.08
2018-06-03T11:35:36.685Z,14.30
2018-06-03T11:38:05.255Z,14.60
2018-06-03T11:40:33.779Z,13.08
2018-06-03T11:43:02.785Z,13.58
2018-06-03T11:45:31.249Z,11.83
2018-06-03T11:47:59.748Z,13.30
2018-06-03T11:50:28.375Z,12.30
2018-06-03T11:52:57.132Z,11.97
2018-06-03T11:55:25.586Z,12.98
2018-06-03T11:58:35.721Z,14.33
2018-06-03T12:01:04.564Z,12.07
2018-06-03T12:03:33.055Z,12.07
2018-06-03T12:06:01.850Z,13.23
2018-06-03T12:08:31.324Z,15.55
2018-06-03T12:11:00.279Z,16.65
2018-06-03T12:13:29.209Z,14.90
2018-06-03T12:15:57.892Z,16.40
2018-06-03T12:18:28.554Z,15.63
2018-06-03T12:20:59.016Z,13.80
2018-06-03T12:23:27.723Z,12.47
2018-06-03T12:25:56.663Z,14.73
2018-06-03T12:28:27.495Z,14.07
2018-06-03T12:30:56.593Z,11.87
2018-06-03T12:33:25.096Z,13.43
2018-06-03T12:35:54.337Z,13.17
2018-06-03T12:38:22.833Z,12.57
2018-06-03T12:40:51.387Z,12.40
2018-06-03T12:43:20.696Z,13.07
2018-06-03T12:45:49.295Z,14.80
2018-06-03T12:48:17.761Z,13.13
2018-06-03T12:50:46.270Z,14.07
2018-06-03T12:53:14.767Z,11.90
2018-06-03T12:55:43.400Z,15.00
2018-06-03T12:58:13.473Z,12.27
2018-06-03T13:00:42.419Z,13.43
2018-06-03T13:03:11.146Z,11.50
2018-06-03T13:05:39.319Z,12.00
2018-06-03T13:08:07.885Z,11.83
2018-06-03T13:10:36.401Z,9.73
2018-06-03T13:13:04.939Z,12.33
2018-06-03T13:15:33.438Z,12.20
2018-06-03T13:18:02.032Z,13.43
2018-06-03T13:20:30.537Z,13.73
2018-06-03T13:22:59.026Z,13.98
2018-06-03T13:25:27.532Z,12.80
2018-06-03T13:27:56.062Z,12.93
2018-06-03T13:30:24.501Z,11.93
2018-06-03T13:32:53.005Z,10.80
2018-06-03T13:35:21.450Z,9.60
2018-06-03T13:37:49.894Z,8.63
2018-06-03T13:40:18.308Z,9.50
2018-06-03T13:42:46.740Z,11.03
2018-06-03T13:45:15.256Z,10.73
2018-06-03T13:47:43.779Z,11.33
2018-06-03T13:50:12.572Z,11.07
2018-06-03T13:52:41.041Z,9.93
2018-06-03T13:55:09.593Z,12.37
2018-06-03T13:57:38.067Z,11.50
2018-06-03T14:00:06.636Z,12.40
2018-06-03T14:02:35.135Z,12.80
2018-06-03T14:05:03.335Z,11.63
2018-06-03T14:07:32.113Z,10.57
2018-06-03T14:10:00.572Z,11.47
2018-06-03T14:12:29.222Z,11.23
2018-06-03T14:14:57.697Z,10.40
2018-06-03T14:17:26.457Z,11.37
2018-06-03T14:19:54.957Z,10.53
2018-06-03T14:22:23.768Z,10.70
2018-06-03T14:24:52.513Z,11.13
2018-06-03T14:27:21.018Z,8.97
2018-06-03T14:29:49.613Z,8.90
2018-06-03T14:32:18.176Z,8.40
2018-06-03T14:34:46.765Z,9.80
2018-06-03T14:37:15.262Z,13.07
2018-06-03T14:39:44.023Z,12.30
2018-06-03T14:42:12.698Z,12.90
2018-06-03T14:44:41.198Z,12.60
2018-06-03T14:47:09.807Z,14.40
2018-06-03T14:49:38.590Z,13.00
2018-06-03T14:52:07.148Z,12.03
2018-06-03T14:54:36.233Z,11.13
2018-06-03T14:57:04.744Z,10.90
2018-06-03T14:59:33.265Z,10.37
2018-06-03T15:02:02.440Z,9.63
2018-06-03T15:04:30.984Z,9.60
2018-06-03T15:06:59.433Z,10.80
2018-06-03T15:09:27.961Z,9.90
2018-06-03T15:11:56.540Z,10.30
2018-06-03T15:14:24.972Z,11.60
2018-06-03T15:16:53.430Z,11.03
2018-06-03T15:19:22.045Z,14.33
2018-06-03T15:21:51.145Z,13.43
2018-06-03T15:24:19.779Z,14.33
2018-06-03T15:26:48.639Z,15.60
2018-06-03T15:29:17.285Z,16.30
2018-06-03T15:31:45.797Z,14.83
2018-06-03T15:34:14.274Z,14.33
2018-06-03T15:36:42.899Z,17.23
2018-06-03T15:39:11.575Z,18.10
2018-06-03T15:41:40.338Z,16.93
2018-06-03T15:44:08.845Z,17.03
2018-06-03T15:46:37.813Z,16.47
2018-06-03T15:49:06.888Z,16.53
2018-06-03T15:51:35.451Z,15.07
2018-06-03T15:54:03.858Z,17.17
2018-06-03T15:56:34.330Z,17.17
2018-06-03T15:59:02.830Z,16.80
2018-06-03T16:01:31.270Z,17.00
2018-06-03T16:03:59.751Z,16.37
2018-06-03T16:06:28.274Z,17.60
2018-06-03T16:08:56.796Z,15.93
2018-06-03T16:11:25.271Z,18.03
2018-06-03T16:13:54.548Z,18.93
2018-06-03T16:16:23.130Z,18.23
2018-06-03T16:18:51.738Z,17.77
2018-06-03T16:21:20.621Z,17.27
2018-06-03T16:23:49.134Z,19.00
2018-06-03T16:26:17.824Z,17.00
2018-06-03T16:28:50.430Z,18.67
2018-06-03T16:31:18.967Z,17.40
2018-06-03T16:33:47.663Z,18.63
2018-06-03T16:36:16.120Z,17.40
2018-06-03T16:38:45.066Z,16.60
2018-06-03T16:41:13.666Z,18.23
2018-06-03T16:43:42.175Z,18.57
2018-06-03T16:46:11.038Z,20.87
2018-06-03T16:48:39.546Z,18.90
2018-06-03T16:51:08.028Z,16.87
2018-06-03T16:53:36.876Z,19.03
2018-06-03T16:56:05.329Z,19.33
2018-06-03T16:58:33.864Z,21.60
2018-06-03T17:01:02.505Z,20.10
2018-06-03T17:03:31.103Z,19.73
2018-06-03T17:05:59.609Z,17.33
2018-06-03T17:08:27.791Z,19.03
2018-06-03T17:10:57.261Z,18.60
2018-06-03T17:13:25.961Z,17.40
2018-06-03T17:15:54.745Z,19.60
2018-06-03T17:18:23.371Z,20.13
2018-06-03T17:20:52.054Z,19.30
2018-06-03T17:23:20.502Z,19.17
2018-06-03T17:25:49.485Z,20.17
2018-06-03T17:28:18.177Z,25.33
2018-06-03T17:30:47.921Z,30.70
2018-06-03T17:33:16.513Z,28.27
2018-06-03T17:35:46.850Z,26.67
2018-06-03T17:38:16.596Z,29.40
2018-06-03T17:40:45.458Z,27.60
2018-06-03T17:43:14.199Z,28.93
2018-06-03T17:45:46.559Z,27.73
2018-06-03T17:48:16.754Z,26.60
2018-06-03T17:50:45.495Z,27.70
2018-06-03T17:53:22.241Z,32.87
2018-06-03T17:55:51.323Z,30.43
2018-06-03T17:58:20.005Z,31.23
2018-06-03T18:00:48.864Z,30.47
2018-06-03T18:03:17.516Z,32.00
2018-06-03T18:05:46.097Z,32.10
2018-06-03T18:08:14.691Z,32.00
2018-06-03T18:10:43.178Z,34.73
2018-06-03T18:13:11.949Z,32.53
2018-06-03T18:15:40.749Z,33.70
2018-06-03T18:18:09.292Z,33.57
2018-06-03T18:20:39.308Z,31.43
2018-06-03T18:23:10.112Z,31.23
2018-06-03T18:25:38.840Z,34.80
2018-06-03T18:28:07.573Z,35.30
2018-06-03T18:30:36.109Z,32.67
2018-06-03T18:33:04.959Z,36.60
2018-06-03T18:35:33.854Z,35.63
2018-06-03T18:38:02.595Z,35.17
2018-06-03T18:40:31.215Z,36.23
2018-06-03T18:42:59.899Z,39.60
2018-06-03T18:45:29.566Z,39.87
2018-06-03T18:47:58.165Z,39.50
2018-06-03T18:50:27.473Z,41.17
2018-06-03T18:52:56.311Z,41.00
2018-06-03T18:55:24.540Z,42.60
2018-06-03T18:57:53.239Z,37.70
2018-06-03T19:00:21.886Z,40.80
2018-06-03T19:02:50.717Z,38.27
2018-06-03T19:05:19.153Z,39.50
2018-06-03T19:07:47.989Z,40.67
2018-06-03T19:10:17.500Z,41.10
2018-06-03T19:12:46.276Z,40.33
2018-06-03T19:15:15.165Z,42.97
2018-06-03T19:17:45.101Z,42.00
2018-06-03T19:20:14.021Z,43.07
2018-06-03T19:22:43.704Z,40.20
2018-06-03T19:25:12.417Z,43.30
2018-06-03T19:27:41.402Z,42.00
2018-06-03T19:30:10.075Z,42.57
2018-06-03T19:32:38.709Z,41.00
2018-06-03T19:35:07.286Z,42.40
2018-06-03T19:37:35.816Z,42.83
2018-06-03T19:40:05.267Z,45.03
2018-06-03T19:42:33.811Z,45.77
2018-06-03T19:45:02.601Z,43.50
2018-06-03T19:47:31.140Z,44.00
2018-06-03T19:49:59.879Z,43.93
2018-06-03T19:52:28.430Z,43.70
2018-06-03T19:54:57.043Z,44.20
2018-06-03T19:57:25.605Z,46.37
2018-06-03T19:59:54.332Z,46.13
2018-06-03T20:02:22.868Z,43.97
2018-06-03T20:04:51.773Z,43.70
2018-06-03T20:07:20.292Z,42.93
2018-06-03T20:09:48.950Z,44.30
2018-06-03T20:12:18.851Z,42.57
2018-06-03T20:14:49.649Z,45.20
2018-06-03T20:17:18.697Z,43.63
2018-06-03T20:19:58.864Z,47.60
2018-06-03T20:22:28.605Z,43.47
2018-06-03T20:24:57.207Z,44.23
2018-06-03T20:27:27.864Z,44.07
2018-06-03T20:29:56.926Z,44.10
2018-06-03T20:32:28.149Z,46.50
2018-06-03T20:34:56.870Z,46.70
2018-06-03T21:24:17.999Z,50.63
2018-06-03T21:26:46.802Z,52.60
2018-06-03T21:29:15.274Z,48.63
2018-06-03T21:31:43.866Z,47.03
2018-06-03T21:34:12.404Z,49.63
2018-06-03T21:36:40.928Z,49.47
2018-06-03T21:39:09.414Z,50.57
2018-06-03T21:41:38.447Z,49.17
2018-06-03T21:44:07.098Z,53.47
2018-06-03T21:46:35.517Z,55.00
2018-06-03T21:49:04.086Z,52.37
2018-06-03T21:51:32.556Z,50.67
2018-06-03T21:54:01.059Z,49.60
2018-06-03T21:56:29.902Z,52.30
2018-06-03T21:58:59.095Z,50.70
2018-06-03T22:01:27.557Z,51.97
2018-06-03T22:03:56.742Z,52.00
2018-06-03T22:06:25.196Z,50.73
2018-06-03T22:08:53.741Z,50.30
2018-06-03T22:11:22.169Z,52.47
2018-06-03T22:13:50.694Z,51.77
2018-06-03T22:16:19.132Z,51.40
2018-06-03T22:18:47.615Z,50.30
2018-06-03T22:21:16.082Z,49.20
2018-06-03T22:23:44.532Z,52.33
2018-06-03T22:26:13.127Z,53.50
2018-06-03T22:28:41.600Z,51.47
2018-06-03T22:31:10.045Z,50.37
2018-06-03T22:33:38.487Z,48.77
2018-06-03T22:36:06.920Z,48.90
2018-06-03T22:38:35.658Z,47.10
2018-06-03T22:41:04.130Z,48.80
2018-06-03T22:43:32.601Z,50.60
2018-06-03T22:46:01.155Z,46.77
2018-06-03T22:48:29.809Z,49.70
2018-06-03T22:50:58.222Z,46.27
2018-06-03T22:53:26.811Z,47.30
2018-06-03T22:55:55.472Z,48.17
2018-06-03T22:58:23.890Z,46.97
2018-06-03T23:00:52.390Z,48.83
2018-06-03T23:03:20.889Z,48.70
2018-06-03T23:05:49.336Z,50.20
2018-06-03T23:08:17.764Z,46.57
2018-06-03T23:10:46.254Z,49.20
2018-06-03T23:13:14.661Z,48.60
2018-06-03T23:15:43.163Z,50.00
2018-06-03T23:18:11.680Z,46.50
2018-06-03T23:20:40.209Z,50.87
2018-06-03T23:23:08.644Z,48.77
2018-06-03T23:25:37.160Z,50.87
2018-06-03T23:28:05.756Z,52.30
2018-06-03T23:30:34.179Z,52.37
2018-06-03T23:33:02.618Z,50.73
2018-06-03T23:35:31.077Z,51.27
2018-06-03T23:37:59.553Z,53.63
2018-06-03T23:40:27.985Z,49.93
2018-06-03T23:42:56.425Z,52.87
2018-06-03T23:45:24.868Z,53.20
2018-06-03T23:47:53.538Z,54.23
2018-06-03T23:50:21.977Z,53.43
2018-06-03T23:52:50.456Z,56.67
2018-06-03T23:55:18.904Z,54.50
2018-06-03T23:57:47.359Z,52.07
